createdAt,value
2019-03-03T00:01:01.293Z,20.50
2019-03-03T00:03:28.398Z,17.85
2019-03-03T00:05:55.209Z,17.60
2019-03-03T00:08:22.151Z,17.07
2019-03-03T00:10:48.843Z,16.42
2019-03-03T00:13:15.772Z,18.30
2019-03-03T00:15:42.506Z,15.80
2019-03-03T00:18:09.435Z,19.13
2019-03-03T00:20:36.481Z,20.03
2019-03-03T00:23:03.116Z,19.20
2019-03-03T00:25:30.114Z,17.00
2019-03-03T00:27:56.747Z,20.75
2019-03-03T00:30:23.490Z,18.80
2019-03-03T00:32:50.374Z,19.37
2019-03-03T00:35:17.124Z,19.73
2019-03-03T00:37:45.314Z,18.77
2019-03-03T00:40:11.947Z,17.10
2019-03-03T00:42:38.617Z,17.67
2019-03-03T00:45:05.310Z,17.67
2019-03-03T00:47:33.064Z,21.87
2019-03-03T00:49:59.926Z,18.82
2019-03-03T00:52:26.962Z,19.23
2019-03-03T00:54:53.620Z,19.37
2019-03-03T00:57:20.295Z,17.57
2019-03-03T00:59:47.258Z,17.50
2019-03-03T01:02:14.002Z,19.07
2019-03-03T01:04:41.501Z,17.77
2019-03-03T01:07:08.243Z,18.07
2019-03-03T01:09:34.874Z,20.83
2019-03-03T01:12:01.570Z,18.33
2019-03-03T01:14:28.560Z,17.45
2019-03-03T01:16:55.158Z,17.97
2019-03-03T01:19:21.917Z,17.87
2019-03-03T01:21:48.847Z,18.48
2019-03-03T01:24:15.507Z,17.53
2019-03-03T01:26:42.453Z,21.40
2019-03-03T01:29:09.184Z,17.57
2019-03-03T01:31:35.863Z,17.63
2019-03-03T01:34:02.543Z,19.13
2019-03-03T01:36:29.483Z,19.40
2019-03-03T01:38:56.171Z,17.37
2019-03-03T01:41:22.926Z,17.73
2019-03-03T01:43:49.857Z,16.20
2019-03-03T01:46:16.842Z,21.05
2019-03-03T01:48:43.451Z,17.83
2019-03-03T01:51:10.101Z,17.70
2019-03-03T01:53:36.722Z,19.33
2019-03-03T01:56:03.495Z,15.90
2019-03-03T01:58:30.391Z,20.33
2019-03-03T02:00:57.102Z,18.37
2019-03-03T02:03:24.077Z,17.92
2019-03-03T02:05:50.940Z,16.10
2019-03-03T02:08:17.909Z,20.10
2019-03-03T02:10:44.716Z,18.90
2019-03-03T02:13:11.367Z,16.83
2019-03-03T02:15:38.132Z,17.60
2019-03-03T02:18:04.760Z,20.90
2019-03-03T02:20:31.565Z,20.87
2019-03-03T02:22:58.491Z,18.33
2019-03-03T02:25:25.094Z,19.07
2019-03-03T02:27:52.161Z,18.13
2019-03-03T02:30:18.930Z,18.45
2019-03-03T02:32:46.147Z,20.17
2019-03-03T02:35:12.899Z,17.17
2019-03-03T02:37:39.579Z,19.07
2019-03-03T02:40:06.187Z,20.00
2019-03-03T02:42:32.888Z,19.47
2019-03-03T02:44:59.644Z,20.02
2019-03-03T02:47:26.507Z,18.63
2019-03-03T02:49:53.779Z,18.20
2019-03-03T02:52:20.722Z,18.00
2019-03-03T02:54:47.624Z,20.27
2019-03-03T02:57:15.565Z,19.13
2019-03-03T02:59:42.171Z,18.87
2019-03-03T03:02:08.824Z,17.13
2019-03-03T03:04:35.517Z,19.10
2019-03-03T03:07:02.645Z,18.45
2019-03-03T03:09:29.466Z,16.40
2019-03-03T03:11:56.800Z,17.23
2019-03-03T03:14:23.524Z,18.57
2019-03-03T03:16:50.443Z,18.07
2019-03-03T03:19:17.078Z,20.83
2019-03-03T03:21:45.847Z,19.30
2019-03-03T03:24:12.595Z,17.00
2019-03-03T03:26:39.679Z,18.10
2019-03-03T03:29:06.596Z,17.00
2019-03-03T03:31:33.442Z,24.07
2019-03-03T03:34:00.044Z,18.80
2019-03-03T03:36:27.010Z,20.95
2019-03-03T03:38:53.816Z,17.53
2019-03-03T03:41:20.541Z,17.70
2019-03-03T03:43:47.315Z,19.33
2019-03-03T03:46:13.967Z,18.37
2019-03-03T03:48:40.863Z,20.97
2019-03-03T03:51:07.535Z,21.07
2019-03-03T03:53:34.181Z,20.80
2019-03-03T03:56:01.101Z,17.95
2019-03-03T03:58:28.125Z,19.95
2019-03-03T04:00:55.004Z,18.27
2019-03-03T04:03:21.648Z,17.77
2019-03-03T04:05:48.339Z,18.00
2019-03-03T04:08:15.262Z,17.27
2019-03-03T04:10:42.180Z,20.20
2019-03-03T04:13:08.847Z,18.10
2019-03-03T04:15:35.493Z,16.80
2019-03-03T04:18:04.777Z,17.73
2019-03-03T04:20:31.475Z,18.17
2019-03-03T04:23:00.122Z,17.83
2019-03-03T04:25:27.987Z,19.37
2019-03-03T04:27:55.643Z,19.25
2019-03-03T04:30:27.970Z,19.70
2019-03-03T04:32:56.889Z,17.27
2019-03-03T04:35:24.023Z,18.87
2019-03-03T04:37:50.995Z,20.17
2019-03-03T04:40:19.386Z,20.25
2019-03-03T04:42:45.965Z,19.03
2019-03-03T04:45:13.092Z,18.23
2019-03-03T04:47:39.918Z,16.83
2019-03-03T04:50:06.884Z,16.97
2019-03-03T04:52:36.658Z,16.70
2019-03-03T04:55:05.211Z,17.20
2019-03-03T04:57:34.441Z,18.80
2019-03-03T05:00:03.341Z,17.70
2019-03-03T05:02:32.501Z,18.13
2019-03-03T05:04:59.203Z,20.73
2019-03-03T05:07:25.860Z,19.23
2019-03-03T05:09:52.569Z,17.65
2019-03-03T05:12:19.242Z,17.90
2019-03-03T05:14:45.816Z,18.23
2019-03-03T05:17:12.488Z,20.37
2019-03-03T05:19:39.311Z,19.33
2019-03-03T05:22:06.886Z,21.20
2019-03-03T05:24:34.563Z,18.93
2019-03-03T05:27:02.013Z,16.67
2019-03-03T05:29:28.924Z,20.02
2019-03-03T05:31:55.583Z,19.50
2019-03-03T05:34:22.655Z,23.67
2019-03-03T05:36:49.612Z,17.47
2019-03-03T05:39:16.243Z,18.27
2019-03-03T05:41:42.860Z,18.87
2019-03-03T05:44:09.846Z,20.87
2019-03-03T05:46:37.100Z,17.55
2019-03-03T05:49:03.885Z,16.43
2019-03-03T05:51:31.412Z,18.77
2019-03-03T05:53:58.295Z,19.37
2019-03-03T05:56:25.357Z,17.42
2019-03-03T05:58:52.174Z,17.83
2019-03-03T06:01:19.526Z,21.27
2019-03-03T06:03:46.171Z,19.97
2019-03-03T06:06:13.134Z,22.57
2019-03-03T06:08:39.893Z,22.17
2019-03-03T06:11:06.864Z,20.27
2019-03-03T06:13:33.663Z,22.67
2019-03-03T06:16:01.114Z,17.03
2019-03-03T06:18:43.350Z,19.17
2019-03-03T06:21:10.152Z,20.27
2019-03-03T06:23:36.858Z,18.53
2019-03-03T06:26:03.476Z,21.87
2019-03-03T06:28:30.325Z,21.30
2019-03-03T06:30:57.004Z,18.60
2019-03-03T06:33:25.224Z,19.23
2019-03-03T06:35:52.842Z,19.03
2019-03-03T06:38:19.711Z,25.50
2019-03-03T06:40:46.334Z,24.27
2019-03-03T06:43:13.270Z,25.68
2019-03-03T06:45:40.226Z,23.07
2019-03-03T06:48:07.556Z,21.35
2019-03-03T06:50:35.166Z,21.40
2019-03-03T06:53:02.016Z,19.13
2019-03-03T06:55:28.795Z,19.07
2019-03-03T06:57:55.584Z,20.10
2019-03-03T07:00:22.292Z,26.20
2019-03-03T07:02:48.928Z,21.17
2019-03-03T07:05:15.571Z,25.23
2019-03-03T07:10:29.122Z,21.73
2019-03-03T07:12:56.869Z,21.93
2019-03-03T07:15:23.541Z,21.07
2019-03-03T07:17:50.203Z,26.40
2019-03-03T07:20:21.135Z,23.43
2019-03-03T07:22:51.563Z,25.70
2019-03-03T07:25:18.419Z,24.07
2019-03-03T07:27:45.109Z,21.77
2019-03-03T07:30:11.743Z,23.37
2019-03-03T07:32:41.448Z,24.18
2019-03-03T07:35:11.102Z,24.40
2019-03-03T07:37:37.995Z,23.10
2019-03-03T07:40:07.144Z,21.23
2019-03-03T07:42:34.043Z,21.27
2019-03-03T07:45:04.522Z,22.77
2019-03-03T07:47:29.499Z,23.87
2019-03-03T07:49:59.705Z,21.53
2019-03-03T07:52:28.934Z,21.83
2019-03-03T07:54:55.539Z,22.90
2019-03-03T07:57:23.138Z,21.40
2019-03-03T07:59:52.259Z,22.17
2019-03-03T08:02:18.908Z,19.87
2019-03-03T08:04:45.796Z,19.60
2019-03-03T08:07:12.573Z,20.93
2019-03-03T08:09:39.526Z,18.73
2019-03-03T08:12:06.176Z,21.20
2019-03-03T08:14:33.905Z,20.12
2019-03-03T08:17:00.650Z,21.07
2019-03-03T08:19:27.309Z,20.43
2019-03-03T08:29:54.855Z,18.40
2019-03-03T08:32:21.541Z,19.20
2019-03-03T08:34:48.256Z,19.55
2019-03-03T08:37:14.992Z,18.63
2019-03-03T08:39:42.375Z,18.37
2019-03-03T08:42:09.199Z,18.67
2019-03-03T08:44:36.448Z,18.90
2019-03-03T08:47:04.623Z,18.52
2019-03-03T08:49:31.357Z,16.90
2019-03-03T08:51:58.231Z,16.53
2019-03-03T08:54:25.138Z,16.90
2019-03-03T08:56:52.193Z,18.10
2019-03-03T08:59:19.368Z,17.82
2019-03-03T09:01:46.274Z,15.88
2019-03-03T09:04:13.030Z,17.27
2019-03-03T09:06:46.812Z,17.05
2019-03-03T09:09:13.842Z,17.70
2019-03-03T09:14:12.889Z,20.50
2019-03-03T09:16:41.543Z,19.23
2019-03-03T09:19:12.292Z,18.73
2019-03-03T09:21:42.667Z,20.33
2019-03-03T09:24:09.272Z,21.53
2019-03-03T09:26:48.190Z,18.63
2019-03-03T09:29:14.549Z,19.00
2019-03-03T09:34:28.906Z,16.27
2019-03-03T09:36:59.610Z,17.43
2019-03-03T09:39:29.719Z,17.57
2019-03-03T09:41:58.515Z,17.53
2019-03-03T09:44:27.208Z,15.65
2019-03-03T09:46:54.531Z,15.58
2019-03-03T09:49:27.332Z,15.83
2019-03-03T09:51:58.542Z,16.05
2019-03-03T09:54:26.547Z,15.27
2019-03-03T09:56:55.944Z,15.37
2019-03-03T09:59:23.175Z,15.77
2019-03-03T10:01:50.114Z,16.43
2019-03-03T10:04:16.985Z,15.87
2019-03-03T10:06:43.903Z,15.40
2019-03-03T10:09:10.555Z,14.03
2019-03-03T10:11:37.767Z,16.13
2019-03-03T10:14:04.414Z,13.43
2019-03-03T10:16:31.072Z,13.37
2019-03-03T10:21:30.304Z,12.53
2019-03-03T10:23:57.432Z,10.68
2019-03-03T10:26:24.430Z,8.43
2019-03-03T10:28:51.523Z,6.92
2019-03-03T10:31:18.332Z,8.57
2019-03-03T10:33:45.613Z,6.10
2019-03-03T10:36:12.484Z,6.10
2019-03-03T10:38:39.150Z,7.20
2019-03-03T10:41:05.723Z,6.17
2019-03-03T10:43:32.505Z,4.47
2019-03-03T10:45:59.713Z,4.30
2019-03-03T10:48:26.612Z,4.90
2019-03-03T10:50:54.109Z,3.45
2019-03-03T10:53:20.790Z,4.77
2019-03-03T10:55:48.094Z,5.37
2019-03-03T10:58:14.800Z,5.87
2019-03-03T11:00:42.160Z,5.83
2019-03-03T11:03:08.913Z,6.40
2019-03-03T11:05:36.755Z,6.60
2019-03-03T11:10:57.336Z,4.83
2019-03-03T11:13:18.818Z,5.12
2019-03-03T11:15:47.873Z,5.00
2019-03-03T11:21:17.785Z,4.40
2019-03-03T11:23:52.953Z,3.90
2019-03-03T11:26:21.759Z,3.50
2019-03-03T11:28:48.407Z,3.47
2019-03-03T11:31:19.550Z,2.53
2019-03-03T11:33:52.580Z,2.77
2019-03-03T11:36:19.361Z,2.90
2019-03-03T11:41:34.998Z,2.90
2019-03-03T11:44:05.691Z,3.30
2019-03-03T11:46:32.817Z,3.35
2019-03-03T11:49:01.817Z,2.70
2019-03-03T11:51:28.521Z,3.17
2019-03-03T11:53:56.164Z,3.70
2019-03-03T11:56:41.640Z,3.10
2019-03-03T11:59:10.543Z,3.58
2019-03-03T12:01:37.719Z,3.60
2019-03-03T12:04:04.381Z,2.67
2019-03-03T12:06:31.671Z,2.47
2019-03-03T12:08:58.700Z,2.80
2019-03-03T12:11:25.552Z,2.70
2019-03-03T12:16:36.452Z,3.33
2019-03-03T12:19:03.370Z,3.90
2019-03-03T12:21:30.620Z,3.10
2019-03-03T12:23:57.500Z,3.43
2019-03-03T12:26:24.293Z,3.60
2019-03-03T12:28:51.365Z,3.43
2019-03-03T12:31:18.589Z,4.10
2019-03-03T12:33:45.351Z,3.40
2019-03-03T12:36:12.691Z,3.42
2019-03-03T12:38:39.626Z,3.60
2019-03-03T12:41:06.743Z,3.25
2019-03-03T12:43:33.688Z,3.90
2019-03-03T12:46:00.848Z,3.27
2019-03-03T12:48:28.677Z,3.67
2019-03-03T12:50:55.558Z,3.40
2019-03-03T12:53:22.176Z,3.37
2019-03-03T12:55:48.982Z,3.17
2019-03-03T12:58:15.957Z,3.00
2019-03-03T13:00:42.693Z,2.97
2019-03-03T13:03:09.384Z,3.07
2019-03-03T13:05:38.343Z,3.47
2019-03-03T13:08:07.484Z,3.26
2019-03-03T13:10:34.610Z,2.97
2019-03-03T13:13:05.310Z,4.05
2019-03-03T13:15:33.000Z,3.40
2019-03-03T13:18:01.604Z,3.10
2019-03-03T13:20:33.051Z,2.90
2019-03-03T13:23:01.397Z,3.35
2019-03-03T13:25:28.604Z,3.33
2019-03-03T13:27:58.323Z,3.60
2019-03-03T13:30:28.431Z,3.40
2019-03-03T13:32:56.146Z,3.07
2019-03-03T13:35:24.758Z,2.90
2019-03-03T13:37:55.130Z,3.23
2019-03-03T13:45:38.981Z,3.58
2019-03-03T13:48:08.967Z,3.20
2019-03-03T13:50:38.065Z,2.67
2019-03-03T13:53:06.859Z,2.62
2019-03-03T13:55:33.900Z,2.80
2019-03-03T13:58:01.179Z,2.30
2019-03-03T14:00:32.314Z,2.80
2019-03-03T14:02:58.880Z,3.37
2019-03-03T14:05:28.442Z,2.63
2019-03-03T14:07:56.332Z,2.50
2019-03-03T14:10:25.435Z,2.63
2019-03-03T14:12:54.682Z,2.47
2019-03-03T14:15:22.148Z,2.40
2019-03-03T14:17:50.353Z,2.20
2019-03-03T14:20:18.866Z,2.15
2019-03-03T14:22:46.128Z,2.10
2019-03-03T14:25:15.168Z,1.90
2019-03-03T14:27:41.863Z,2.00
2019-03-03T14:32:43.020Z,2.10
2019-03-03T14:35:13.285Z,2.17
2019-03-03T14:37:41.472Z,2.10
2019-03-03T14:40:08.507Z,1.90
2019-03-03T14:42:35.406Z,1.60
2019-03-03T14:45:06.167Z,1.80
2019-03-03T14:47:35.110Z,1.63
2019-03-03T14:50:04.183Z,1.77
2019-03-03T14:52:32.482Z,1.50
2019-03-03T14:54:59.436Z,1.80
2019-03-03T14:57:29.046Z,1.80
2019-03-03T14:59:55.722Z,1.70
2019-03-03T15:02:23.059Z,1.60
2019-03-03T15:04:51.593Z,1.43
2019-03-03T15:07:18.678Z,1.60
2019-03-03T15:09:45.567Z,1.70
2019-03-03T15:12:12.628Z,1.70
2019-03-03T15:14:39.617Z,1.60
2019-03-03T15:17:06.288Z,1.57
2019-03-03T15:19:33.044Z,1.50
2019-03-03T15:22:00.077Z,1.90
2019-03-03T15:24:26.707Z,1.70
2019-03-03T15:26:53.486Z,1.50
2019-03-03T15:29:20.709Z,1.40
2019-03-03T15:31:47.632Z,1.50
2019-03-03T15:34:15.678Z,1.80
2019-03-03T15:36:42.756Z,1.32
2019-03-03T15:39:09.571Z,1.60
2019-03-03T15:41:36.725Z,1.74
2019-03-03T15:44:03.853Z,1.90
2019-03-03T15:46:30.693Z,1.60
2019-03-03T15:48:57.356Z,1.50
2019-03-03T15:51:24.093Z,1.77
2019-03-03T15:53:50.886Z,1.50
2019-03-03T15:56:17.670Z,1.60
2019-03-03T15:58:44.956Z,1.45
2019-03-03T16:01:11.907Z,1.80
2019-03-03T16:03:39.000Z,1.67
2019-03-03T16:06:05.936Z,1.60
2019-03-03T16:08:33.222Z,1.47
2019-03-03T16:10:59.940Z,1.70
2019-03-03T16:13:26.851Z,1.70
2019-03-03T16:15:53.688Z,1.53
2019-03-03T16:18:20.616Z,1.60
2019-03-03T16:20:50.473Z,1.80
2019-03-03T16:23:17.797Z,1.55
2019-03-03T16:25:44.554Z,1.80
2019-03-03T16:28:11.303Z,1.60
2019-03-03T16:30:37.959Z,1.60
2019-03-03T16:33:04.954Z,1.80
2019-03-03T16:35:31.849Z,1.90
2019-03-03T16:37:58.694Z,2.33
2019-03-03T16:40:25.914Z,2.15
2019-03-03T16:42:52.855Z,2.07
2019-03-03T16:45:20.141Z,2.40
2019-03-03T16:47:47.025Z,2.83
2019-03-03T16:50:14.061Z,3.08
2019-03-03T16:52:41.100Z,2.90
2019-03-03T16:55:08.280Z,3.20
2019-03-03T16:57:34.919Z,3.00
2019-03-03T17:00:01.518Z,3.17
2019-03-03T17:02:28.124Z,3.10
2019-03-03T17:04:55.443Z,3.20
2019-03-03T17:07:22.298Z,3.85
2019-03-03T17:09:49.224Z,4.20
2019-03-03T17:12:16.374Z,4.28
2019-03-03T17:14:43.272Z,4.33
2019-03-03T17:17:10.452Z,4.27
2019-03-03T17:36:50.577Z,3.70
2019-03-03T17:51:31.291Z,3.95
2019-03-03T17:58:51.165Z,4.45
2019-03-03T18:01:18.076Z,5.43
